sensor_id;sensor_type;location;lat;lon;timestamp;P1;durP1;ratioP1;P2;durP2;ratioP2
71202;SDS011;58929;47.490;19.090;2023-04-15T00:00:38;5.88;;;4.70;;
71202;SDS011;58929;47.490;19.090;2023-04-15T00:03:06;5.05;;;4.55;;
71202;SDS011;58929;47.490;19.090;2023-04-15T00:05:34;5.50;;;4.28;;
71202;SDS011;58929;47.490;19.090;2023-04-15T00:08:03;6.72;;;4.28;;
71202;SDS011;58929;47.490;19.090;2023-04-15T00:10:32;5.55;;;4.85;;
71202;SDS011;58929;47.490;19.090;2023-04-15T00:13:00;7.57;;;4.05;;
71202;SDS011;58929;47.490;19.090;2023-04-15T00:15:29;5.53;;;4.50;;
71202;SDS011;58929;47.490;19.090;2023-04-15T00:17:58;6.30;;;5.00;;
71202;SDS011;58929;47.490;19.090;2023-04-15T00:20:26;5.65;;;4.53;;
71202;SDS011;58929;47.490;19.090;2023-04-15T00:22:54;6.63;;;5.13;;
71202;SDS011;58929;47.490;19.090;2023-04-15T00:25:22;11.38;;;6.07;;
71202;SDS011;58929;47.490;19.090;2023-04-15T00:27:51;6.10;;;5.25;;
71202;SDS011;58929;47.490;19.090;2023-04-15T00:30:19;7.25;;;5.78;;
71202;SDS011;58929;47.490;19.090;2023-04-15T00:32:47;6.95;;;5.40;;
71202;SDS011;58929;47.490;19.090;2023-04-15T00:35:19;11.35;;;5.70;;
71202;SDS011;58929;47.490;19.090;2023-04-15T00:37:49;6.72;;;5.30;;
71202;SDS011;58929;47.490;19.090;2023-04-15T00:40:17;5.93;;;4.93;;
71202;SDS011;58929;47.490;19.090;2023-04-15T00:42:46;7.95;;;5.53;;
71202;SDS011;58929;47.490;19.090;2023-04-15T00:45:15;7.32;;;4.80;;
71202;SDS011;58929;47.490;19.090;2023-04-15T00:47:43;6.40;;;5.00;;
71202;SDS011;58929;47.490;19.090;2023-04-15T00:50:11;5.78;;;4.88;;
71202;SDS011;58929;47.490;19.090;2023-04-15T00:52:39;8.52;;;5.20;;
71202;SDS011;58929;47.490;19.090;2023-04-15T00:55:07;5.75;;;5.03;;
71202;SDS011;58929;47.490;19.090;2023-04-15T00:57:35;5.05;;;4.53;;
71202;SDS011;58929;47.490;19.090;2023-04-15T01:00:04;5.43;;;4.85;;
71202;SDS011;58929;47.490;19.090;2023-04-15T01:02:34;6.93;;;5.25;;
71202;SDS011;58929;47.490;19.090;2023-04-15T01:05:03;9.05;;;5.85;;
71202;SDS011;58929;47.490;19.090;2023-04-15T01:07:31;6.43;;;5.03;;
71202;SDS011;58929;47.490;19.090;2023-04-15T01:09:59;6.25;;;5.05;;
71202;SDS011;58929;47.490;19.090;2023-04-15T01:12:28;8.35;;;5.13;;
71202;SDS011;58929;47.490;19.090;2023-04-15T01:14:57;6.90;;;5.57;;
71202;SDS011;58929;47.490;19.090;2023-04-15T01:17:26;6.75;;;5.78;;
71202;SDS011;58929;47.490;19.090;2023-04-15T01:19:55;5.85;;;5.25;;
71202;SDS011;58929;47.490;19.090;2023-04-15T01:22:25;7.13;;;6.18;;
71202;SDS011;58929;47.490;19.090;2023-04-15T01:24:54;6.45;;;5.75;;
71202;SDS011;58929;47.490;19.090;2023-04-15T01:27:31;7.13;;;6.38;;
71202;SDS011;58929;47.490;19.090;2023-04-15T01:29:59;6.18;;;5.57;;
71202;SDS011;58929;47.490;19.090;2023-04-15T01:32:30;7.88;;;6.45;;
71202;SDS011;58929;47.490;19.090;2023-04-15T01:34:58;6.80;;;5.85;;
71202;SDS011;58929;47.490;19.090;2023-04-15T01:37:26;7.28;;;6.32;;
71202;SDS011;58929;47.490;19.090;2023-04-15T01:39:55;6.80;;;6.00;;
71202;SDS011;58929;47.490;19.090;2023-04-15T01:42:23;9.85;;;6.32;;
71202;SDS011;58929;47.490;19.090;2023-04-15T01:44:53;7.75;;;6.55;;
71202;SDS011;58929;47.490;19.090;2023-04-15T01:47:21;9.55;;;6.32;;
71202;SDS011;58929;47.490;19.090;2023-04-15T01:49:49;10.13;;;7.45;;
71202;SDS011;58929;47.490;19.090;2023-04-15T01:52:17;9.25;;;7.45;;
71202;SDS011;58929;47.490;19.090;2023-04-15T01:54:45;10.35;;;7.45;;
71202;SDS011;58929;47.490;19.090;2023-04-15T01:57:14;9.30;;;7.43;;
71202;SDS011;58929;47.490;19.090;2023-04-15T01:59:43;12.07;;;8.27;;
71202;SDS011;58929;47.490;19.090;2023-04-15T02:02:12;10.95;;;8.50;;
71202;SDS011;58929;47.490;19.090;2023-04-15T02:04:41;13.85;;;9.00;;
71202;SDS011;58929;47.490;19.090;2023-04-15T02:07:08;10.93;;;8.82;;
71202;SDS011;58929;47.490;19.090;2023-04-15T02:09:36;11.73;;;8.70;;
71202;SDS011;58929;47.490;19.090;2023-04-15T02:12:08;11.05;;;9.65;;
71202;SDS011;58929;47.490;19.090;2023-04-15T02:14:36;9.65;;;8.07;;
71202;SDS011;58929;47.490;19.090;2023-04-15T02:17:04;11.05;;;8.52;;
71202;SDS011;58929;47.490;19.090;2023-04-15T02:19:35;12.07;;;9.18;;
71202;SDS011;58929;47.490;19.090;2023-04-15T02:22:04;13.20;;;8.75;;
71202;SDS011;58929;47.490;19.090;2023-04-15T02:24:33;10.07;;;8.20;;
71202;SDS011;58929;47.490;19.090;2023-04-15T02:27:01;10.52;;;9.05;;
71202;SDS011;58929;47.490;19.090;2023-04-15T02:29:30;9.20;;;8.27;;
71202;SDS011;58929;47.490;19.090;2023-04-15T02:31:59;10.77;;;8.75;;
71202;SDS011;58929;47.490;19.090;2023-04-15T02:34:27;9.65;;;8.57;;
71202;SDS011;58929;47.490;19.090;2023-04-15T02:36:58;10.43;;;8.57;;
71202;SDS011;58929;47.490;19.090;2023-04-15T02:39:26;11.77;;;9.35;;
71202;SDS011;58929;47.490;19.090;2023-04-15T02:41:54;9.43;;;8.30;;
71202;SDS011;58929;47.490;19.090;2023-04-15T02:44:24;11.95;;;9.07;;
71202;SDS011;58929;47.490;19.090;2023-04-15T02:46:57;12.20;;;8.25;;
71202;SDS011;58929;47.490;19.090;2023-04-15T02:49:25;11.05;;;8.35;;
71202;SDS011;58929;47.490;19.090;2023-04-15T02:51:55;13.35;;;9.57;;
71202;SDS011;58929;47.490;19.090;2023-04-15T02:54:25;11.65;;;9.65;;
71202;SDS011;58929;47.490;19.090;2023-04-15T02:56:54;10.73;;;8.55;;
71202;SDS011;58929;47.490;19.090;2023-04-15T02:59:22;10.57;;;8.38;;
71202;SDS011;58929;47.490;19.090;2023-04-15T03:01:50;10.30;;;9.07;;
71202;SDS011;58929;47.490;19.090;2023-04-15T03:04:18;11.20;;;9.70;;
71202;SDS011;58929;47.490;19.090;2023-04-15T03:06:46;12.77;;;9.68;;
71202;SDS011;58929;47.490;19.090;2023-04-15T03:09:15;12.68;;;10.40;;
71202;SDS011;58929;47.490;19.090;2023-04-15T03:11:44;12.15;;;9.15;;
71202;SDS011;58929;47.490;19.090;2023-04-15T03:14:12;11.73;;;9.05;;
71202;SDS011;58929;47.490;19.090;2023-04-15T03:16:43;9.32;;;7.82;;
71202;SDS011;58929;47.490;19.090;2023-04-15T03:19:14;9.82;;;7.93;;
71202;SDS011;58929;47.490;19.090;2023-04-15T03:21:42;10.05;;;7.57;;
71202;SDS011;58929;47.490;19.090;2023-04-15T03:24:12;12.10;;;8.65;;
71202;SDS011;58929;47.490;19.090;2023-04-15T03:26:39;11.35;;;7.93;;
71202;SDS011;58929;47.490;19.090;2023-04-15T03:29:12;8.75;;;6.35;;
71202;SDS011;58929;47.490;19.090;2023-04-15T03:31:40;7.57;;;5.65;;
71202;SDS011;58929;47.490;19.090;2023-04-15T03:34:09;6.80;;;4.72;;
71202;SDS011;58929;47.490;19.090;2023-04-15T03:36:37;7.65;;;5.20;;
71202;SDS011;58929;47.490;19.090;2023-04-15T03:39:05;7.15;;;5.07;;
71202;SDS011;58929;47.490;19.090;2023-04-15T03:41:33;8.20;;;5.28;;
71202;SDS011;58929;47.490;19.090;2023-04-15T03:44:01;6.63;;;5.22;;
71202;SDS011;58929;47.490;19.090;2023-04-15T03:46:31;6.82;;;4.80;;
71202;SDS011;58929;47.490;19.090;2023-04-15T03:48:58;7.07;;;4.65;;
71202;SDS011;58929;47.490;19.090;2023-04-15T03:51:27;6.80;;;5.13;;
71202;SDS011;58929;47.490;19.090;2023-04-15T03:53:54;5.07;;;4.47;;
71202;SDS011;58929;47.490;19.090;2023-04-15T03:56:22;6.97;;;5.13;;
71202;SDS011;58929;47.490;19.090;2023-04-15T03:58:50;7.25;;;5.75;;
71202;SDS011;58929;47.490;19.090;2023-04-15T04:01:18;7.90;;;6.05;;
71202;SDS011;58929;47.490;19.090;2023-04-15T04:03:48;7.25;;;5.00;;
71202;SDS011;58929;47.490;19.090;2023-04-15T04:06:16;6.57;;;5.68;;
71202;SDS011;58929;47.490;19.090;2023-04-15T04:08:44;9.52;;;5.90;;
71202;SDS011;58929;47.490;19.090;2023-04-15T04:11:12;7.30;;;6.00;;
71202;SDS011;58929;47.490;19.090;2023-04-15T04:13:40;8.43;;;4.90;;
71202;SDS011;58929;47.490;19.090;2023-04-15T04:16:08;6.20;;;5.18;;
71202;SDS011;58929;47.490;19.090;2023-04-15T04:18:36;7.28;;;5.88;;
71202;SDS011;58929;47.490;19.090;2023-04-15T04:21:06;18.17;;;11.80;;
71202;SDS011;58929;47.490;19.090;2023-04-15T04:23:34;19.92;;;12.82;;
71202;SDS011;58929;47.490;19.090;2023-04-15T04:26:02;67.70;;;33.00;;
71202;SDS011;58929;47.490;19.090;2023-04-15T04:28:30;13.73;;;8.52;;
71202;SDS011;58929;47.490;19.090;2023-04-15T04:30:58;7.95;;;5.78;;
71202;SDS011;58929;47.490;19.090;2023-04-15T04:33:26;7.38;;;5.63;;
71202;SDS011;58929;47.490;19.090;2023-04-15T04:35:54;12.45;;;6.50;;
71202;SDS011;58929;47.490;19.090;2023-04-15T04:38:23;17.33;;;6.07;;
71202;SDS011;58929;47.490;19.090;2023-04-15T04:40:51;11.82;;;4.82;;
71202;SDS011;58929;47.490;19.090;2023-04-15T04:43:19;5.93;;;4.78;;
71202;SDS011;58929;47.490;19.090;2023-04-15T04:45:48;7.93;;;4.90;;
71202;SDS011;58929;47.490;19.090;2023-04-15T04:48:16;6.22;;;5.00;;
71202;SDS011;58929;47.490;19.090;2023-04-15T04:50:45;8.55;;;4.88;;
71202;SDS011;58929;47.490;19.090;2023-04-15T04:53:14;5.80;;;4.57;;
71202;SDS011;58929;47.490;19.090;2023-04-15T04:55:44;7.97;;;5.30;;
71202;SDS011;58929;47.490;19.090;2023-04-15T04:58:12;5.85;;;4.63;;
71202;SDS011;58929;47.490;19.090;2023-04-15T05:00:41;6.13;;;4.70;;
71202;SDS011;58929;47.490;19.090;2023-04-15T05:03:10;7.10;;;4.95;;
71202;SDS011;58929;47.490;19.090;2023-04-15T05:05:38;6.97;;;4.90;;
71202;SDS011;58929;47.490;19.090;2023-04-15T05:08:06;5.93;;;4.55;;
71202;SDS011;58929;47.490;19.090;2023-04-15T05:10:34;6.07;;;4.97;;
71202;SDS011;58929;47.490;19.090;2023-04-15T05:13:04;6.40;;;4.90;;
71202;SDS011;58929;47.490;19.090;2023-04-15T05:15:32;8.55;;;5.65;;
71202;SDS011;58929;47.490;19.090;2023-04-15T05:18:02;5.88;;;4.90;;
71202;SDS011;58929;47.490;19.090;2023-04-15T05:20:30;10.35;;;6.05;;
71202;SDS011;58929;47.490;19.090;2023-04-15T05:22:58;7.38;;;5.82;;
71202;SDS011;58929;47.490;19.090;2023-04-15T05:25:26;8.13;;;5.85;;
71202;SDS011;58929;47.490;19.090;2023-04-15T05:27:54;8.45;;;6.18;;
71202;SDS011;58929;47.490;19.090;2023-04-15T05:30:23;9.00;;;6.40;;
71202;SDS011;58929;47.490;19.090;2023-04-15T05:32:52;8.10;;;6.50;;
71202;SDS011;58929;47.490;19.090;2023-04-15T05:35:20;8.18;;;6.10;;
71202;SDS011;58929;47.490;19.090;2023-04-15T05:37:48;8.18;;;6.45;;
71202;SDS011;58929;47.490;19.090;2023-04-15T05:40:16;8.55;;;6.55;;
71202;SDS011;58929;47.490;19.090;2023-04-15T05:42:44;9.52;;;6.00;;
71202;SDS011;58929;47.490;19.090;2023-04-15T05:45:12;10.88;;;6.88;;
71202;SDS011;58929;47.490;19.090;2023-04-15T05:47:41;12.02;;;6.40;;
71202;SDS011;58929;47.490;19.090;2023-04-15T05:50:10;10.15;;;6.50;;
71202;SDS011;58929;47.490;19.090;2023-04-15T05:52:38;7.30;;;6.30;;
71202;SDS011;58929;47.490;19.090;2023-04-15T05:55:06;8.30;;;6.63;;
71202;SDS011;58929;47.490;19.090;2023-04-15T05:57:34;6.45;;;5.75;;
71202;SDS011;58929;47.490;19.090;2023-04-15T06:00:02;8.10;;;6.50;;
71202;SDS011;58929;47.490;19.090;2023-04-15T06:02:34;7.40;;;5.65;;
71202;SDS011;58929;47.490;19.090;2023-04-15T06:05:05;8.38;;;6.38;;
71202;SDS011;58929;47.490;19.090;2023-04-15T06:07:36;9.65;;;6.78;;
71202;SDS011;58929;47.490;19.090;2023-04-15T06:10:04;8.20;;;6.97;;
71202;SDS011;58929;47.490;19.090;2023-04-15T06:12:33;7.88;;;6.03;;
71202;SDS011;58929;47.490;19.090;2023-04-15T06:15:01;10.05;;;7.00;;
71202;SDS011;58929;47.490;19.090;2023-04-15T06:17:29;8.20;;;6.25;;
71202;SDS011;58929;47.490;19.090;2023-04-15T06:19:57;8.60;;;5.82;;
71202;SDS011;58929;47.490;19.090;2023-04-15T06:22:26;11.43;;;5.93;;
71202;SDS011;58929;47.490;19.090;2023-04-15T06:24:54;9.27;;;5.82;;
71202;SDS011;58929;47.490;19.090;2023-04-15T06:27:22;15.90;;;7.68;;
71202;SDS011;58929;47.490;19.090;2023-04-15T06:29:50;6.32;;;5.72;;
71202;SDS011;58929;47.490;19.090;2023-04-15T06:32:18;8.38;;;6.10;;
71202;SDS011;58929;47.490;19.090;2023-04-15T06:34:48;7.53;;;5.72;;
71202;SDS011;58929;47.490;19.090;2023-04-15T06:37:16;8.32;;;5.68;;
71202;SDS011;58929;47.490;19.090;2023-04-15T06:39:45;6.85;;;5.30;;
71202;SDS011;58929;47.490;19.090;2023-04-15T06:42:13;5.85;;;5.07;;
71202;SDS011;58929;47.490;19.090;2023-04-15T06:44:41;6.53;;;5.50;;
71202;SDS011;58929;47.490;19.090;2023-04-15T06:47:10;5.40;;;4.60;;
71202;SDS011;58929;47.490;19.090;2023-04-15T06:49:40;7.55;;;5.20;;
71202;SDS011;58929;47.490;19.090;2023-04-15T06:52:09;9.68;;;5.30;;
71202;SDS011;58929;47.490;19.090;2023-04-15T06:54:37;5.25;;;4.60;;
71202;SDS011;58929;47.490;19.090;2023-04-15T06:57:06;6.03;;;4.80;;
71202;SDS011;58929;47.490;19.090;2023-04-15T06:59:34;9.05;;;4.57;;
71202;SDS011;58929;47.490;19.090;2023-04-15T07:02:02;11.57;;;5.38;;
71202;SDS011;58929;47.490;19.090;2023-04-15T07:04:30;8.57;;;4.57;;
71202;SDS011;58929;47.490;19.090;2023-04-15T07:06:59;7.25;;;4.60;;
71202;SDS011;58929;47.490;19.090;2023-04-15T07:09:28;5.68;;;4.80;;
71202;SDS011;58929;47.490;19.090;2023-04-15T07:11:56;9.77;;;6.50;;
71202;SDS011;58929;47.490;19.090;2023-04-15T07:14:25;12.60;;;9.23;;
71202;SDS011;58929;47.490;19.090;2023-04-15T07:16:55;13.10;;;8.23;;
71202;SDS011;58929;47.490;19.090;2023-04-15T07:19:23;6.32;;;4.00;;
71202;SDS011;58929;47.490;19.090;2023-04-15T07:21:50;6.43;;;4.40;;
71202;SDS011;58929;47.490;19.090;2023-04-15T07:24:18;5.50;;;3.80;;
71202;SDS011;58929;47.490;19.090;2023-04-15T07:26:46;5.68;;;4.47;;
71202;SDS011;58929;47.490;19.090;2023-04-15T07:29:14;10.77;;;5.38;;
71202;SDS011;58929;47.490;19.090;2023-04-15T07:31:44;10.20;;;4.28;;
71202;SDS011;58929;47.490;19.090;2023-04-15T07:34:12;8.20;;;4.55;;
71202;SDS011;58929;47.490;19.090;2023-04-15T07:36:40;4.78;;;3.88;;
71202;SDS011;58929;47.490;19.090;2023-04-15T07:39:08;3.55;;;3.22;;
71202;SDS011;58929;47.490;19.090;2023-04-15T07:41:36;5.03;;;3.83;;
71202;SDS011;58929;47.490;19.090;2023-04-15T07:44:04;6.18;;;3.70;;
71202;SDS011;58929;47.490;19.090;2023-04-15T07:46:32;4.22;;;3.75;;
71202;SDS011;58929;47.490;19.090;2023-04-15T07:49:01;5.05;;;3.88;;
71202;SDS011;58929;47.490;19.090;2023-04-15T07:51:30;3.53;;;3.22;;
71202;SDS011;58929;47.490;19.090;2023-04-15T07:53:58;9.32;;;4.00;;
71202;SDS011;58929;47.490;19.090;2023-04-15T07:56:25;4.28;;;3.22;;
71202;SDS011;58929;47.490;19.090;2023-04-15T07:58:54;4.68;;;3.03;;
71202;SDS011;58929;47.490;19.090;2023-04-15T08:01:22;3.05;;;2.50;;
71202;SDS011;58929;47.490;19.090;2023-04-15T08:03:50;5.32;;;4.28;;
71202;SDS011;58929;47.490;19.090;2023-04-15T08:06:20;9.52;;;6.15;;
71202;SDS011;58929;47.490;19.090;2023-04-15T08:08:48;2.85;;;2.10;;
71202;SDS011;58929;47.490;19.090;2023-04-15T08:11:16;3.05;;;2.33;;
71202;SDS011;58929;47.490;19.090;2023-04-15T08:13:44;6.18;;;2.95;;
71202;SDS011;58929;47.490;19.090;2023-04-15T08:16:17;3.05;;;2.45;;
71202;SDS011;58929;47.490;19.090;2023-04-15T08:18:45;2.50;;;2.22;;
71202;SDS011;58929;47.490;19.090;2023-04-15T08:21:14;2.90;;;2.25;;
71202;SDS011;58929;47.490;19.090;2023-04-15T08:23:44;5.88;;;2.15;;
71202;SDS011;58929;47.490;19.090;2023-04-15T08:26:13;3.75;;;1.90;;
71202;SDS011;58929;47.490;19.090;2023-04-15T08:28:44;2.63;;;2.22;;
71202;SDS011;58929;47.490;19.090;2023-04-15T08:31:12;2.22;;;2.03;;
71202;SDS011;58929;47.490;19.090;2023-04-15T08:33:41;1.98;;;1.75;;
71202;SDS011;58929;47.490;19.090;2023-04-15T08:36:09;5.25;;;2.20;;
71202;SDS011;58929;47.490;19.090;2023-04-15T08:38:37;14.98;;;10.82;;
71202;SDS011;58929;47.490;19.090;2023-04-15T08:41:11;5.40;;;2.20;;
71202;SDS011;58929;47.490;19.090;2023-04-15T08:43:41;2.60;;;1.98;;
71202;SDS011;58929;47.490;19.090;2023-04-15T08:46:13;3.97;;;2.30;;
71202;SDS011;58929;47.490;19.090;2023-04-15T08:48:42;3.80;;;2.28;;
71202;SDS011;58929;47.490;19.090;2023-04-15T08:51:10;5.40;;;2.05;;
71202;SDS011;58929;47.490;19.090;2023-04-15T08:53:41;2.67;;;1.98;;
71202;SDS011;58929;47.490;19.090;2023-04-15T08:56:11;2.47;;;1.90;;
71202;SDS011;58929;47.490;19.090;2023-04-15T08:58:42;3.58;;;1.90;;
71202;SDS011;58929;47.490;19.090;2023-04-15T09:01:10;3.63;;;1.73;;
71202;SDS011;58929;47.490;19.090;2023-04-15T09:03:39;3.42;;;1.98;;
71202;SDS011;58929;47.490;19.090;2023-04-15T09:06:08;3.03;;;2.10;;
71202;SDS011;58929;47.490;19.090;2023-04-15T09:08:36;4.30;;;1.92;;
71202;SDS011;58929;47.490;19.090;2023-04-15T09:11:04;1.58;;;1.45;;
71202;SDS011;58929;47.490;19.090;2023-04-15T09:13:34;2.03;;;1.70;;
71202;SDS011;58929;47.490;19.090;2023-04-15T09:16:02;1.98;;;1.80;;
71202;SDS011;58929;47.490;19.090;2023-04-15T09:18:32;4.07;;;1.83;;
71202;SDS011;58929;47.490;19.090;2023-04-15T09:21:04;7.03;;;1.70;;
71202;SDS011;58929;47.490;19.090;2023-04-15T09:23:32;2.75;;;1.55;;
71202;SDS011;58929;47.490;19.090;2023-04-15T09:26:00;2.00;;;1.80;;
71202;SDS011;58929;47.490;19.090;2023-04-15T09:28:28;2.67;;;1.70;;
71202;SDS011;58929;47.490;19.090;2023-04-15T09:30:58;1.20;;;1.10;;
71202;SDS011;58929;47.490;19.090;2023-04-15T09:33:27;2.00;;;1.42;;
71202;SDS011;58929;47.490;19.090;2023-04-15T09:35:56;1.75;;;1.20;;
71202;SDS011;58929;47.490;19.090;2023-04-15T09:38:25;1.85;;;1.20;;
71202;SDS011;58929;47.490;19.090;2023-04-15T09:40:53;1.20;;;1.02;;
71202;SDS011;58929;47.490;19.090;2023-04-15T09:43:21;1.95;;;0.90;;
71202;SDS011;58929;47.490;19.090;2023-04-15T09:45:49;6.80;;;1.00;;
71202;SDS011;58929;47.490;19.090;2023-04-15T09:48:19;1.27;;;0.98;;
71202;SDS011;58929;47.490;19.090;2023-04-15T09:50:48;1.80;;;1.38;;
71202;SDS011;58929;47.490;19.090;2023-04-15T09:53:16;1.77;;;1.50;;
71202;SDS011;58929;47.490;19.090;2023-04-15T09:55:46;1.65;;;1.40;;
71202;SDS011;58929;47.490;19.090;2023-04-15T09:58:16;2.33;;;1.30;;
71202;SDS011;58929;47.490;19.090;2023-04-15T10:00:46;1.88;;;1.30;;
71202;SDS011;58929;47.490;19.090;2023-04-15T10:03:14;1.77;;;1.60;;
71202;SDS011;58929;47.490;19.090;2023-04-15T10:05:47;1.70;;;1.38;;
71202;SDS011;58929;47.490;19.090;2023-04-15T10:08:17;2.70;;;1.35;;
71202;SDS011;58929;47.490;19.090;2023-04-15T10:10:46;5.70;;;2.58;;
71202;SDS011;58929;47.490;19.090;2023-04-15T10:16:10;3.20;;;2.30;;
71202;SDS011;58929;47.490;19.090;2023-04-15T10:18:41;4.18;;;2.35;;
71202;SDS011;58929;47.490;19.090;2023-04-15T10:21:11;3.88;;;2.80;;
71202;SDS011;58929;47.490;19.090;2023-04-15T10:23:44;8.45;;;2.78;;
71202;SDS011;58929;47.490;19.090;2023-04-15T10:26:14;4.78;;;2.55;;
71202;SDS011;58929;47.490;19.090;2023-04-15T10:28:43;4.20;;;2.50;;
71202;SDS011;58929;47.490;19.090;2023-04-15T10:31:12;3.55;;;1.77;;
71202;SDS011;58929;47.490;19.090;2023-04-15T10:33:41;1.83;;;1.20;;
71202;SDS011;58929;47.490;19.090;2023-04-15T10:36:12;1.92;;;1.50;;
71202;SDS011;58929;47.490;19.090;2023-04-15T10:38:41;1.50;;;1.10;;
71202;SDS011;58929;47.490;19.090;2023-04-15T10:41:13;2.72;;;1.38;;
71202;SDS011;58929;47.490;19.090;2023-04-15T10:43:45;1.38;;;1.27;;
71202;SDS011;58929;47.490;19.090;2023-04-15T10:46:13;1.80;;;1.17;;
71202;SDS011;58929;47.490;19.090;2023-04-15T10:48:46;3.72;;;0.95;;
71202;SDS011;58929;47.490;19.090;2023-04-15T10:51:15;2.83;;;1.10;;
71202;SDS011;58929;47.490;19.090;2023-04-15T10:53:44;2.85;;;1.25;;
71202;SDS011;58929;47.490;19.090;2023-04-15T10:56:12;5.38;;;1.25;;
71202;SDS011;58929;47.490;19.090;2023-04-15T10:58:40;3.42;;;1.10;;
71202;SDS011;58929;47.490;19.090;2023-04-15T11:01:08;1.25;;;1.10;;
71202;SDS011;58929;47.490;19.090;2023-04-15T11:03:37;1.52;;;1.27;;
71202;SDS011;58929;47.490;19.090;2023-04-15T11:06:06;2.05;;;1.10;;
71202;SDS011;58929;47.490;19.090;2023-04-15T11:11:21;4.88;;;1.30;;
71202;SDS011;58929;47.490;19.090;2023-04-15T11:13:49;1.48;;;1.38;;
71202;SDS011;58929;47.490;19.090;2023-04-15T11:16:18;3.10;;;1.30;;
71202;SDS011;58929;47.490;19.090;2023-04-15T11:18:53;1.35;;;1.17;;
71202;SDS011;58929;47.490;19.090;2023-04-15T11:21:23;1.90;;;1.10;;
71202;SDS011;58929;47.490;19.090;2023-04-15T11:23:51;0.98;;;0.90;;
71202;SDS011;58929;47.490;19.090;2023-04-15T11:26:24;2.72;;;1.10;;
71202;SDS011;58929;47.490;19.090;2023-04-15T11:28:52;1.20;;;1.05;;
71202;SDS011;58929;47.490;19.090;2023-04-15T11:31:21;1.25;;;0.98;;
71202;SDS011;58929;47.490;19.090;2023-04-15T11:33:53;2.60;;;1.20;;
71202;SDS011;58929;47.490;19.090;2023-04-15T11:36:23;1.42;;;1.10;;
71202;SDS011;58929;47.490;19.090;2023-04-15T11:38:52;0.70;;;0.70;;
71202;SDS011;58929;47.490;19.090;2023-04-15T11:41:22;3.17;;;0.90;;
71202;SDS011;58929;47.490;19.090;2023-04-15T11:43:50;4.70;;;0.80;;
71202;SDS011;58929;47.490;19.090;2023-04-15T11:46:18;4.97;;;0.95;;
71202;SDS011;58929;47.490;19.090;2023-04-15T11:48:46;1.20;;;0.70;;
71202;SDS011;58929;47.490;19.090;2023-04-15T11:51:15;0.52;;;0.52;;
71202;SDS011;58929;47.490;19.090;2023-04-15T11:53:43;1.08;;;0.80;;
71202;SDS011;58929;47.490;19.090;2023-04-15T11:56:15;1.15;;;1.00;;
71202;SDS011;58929;47.490;19.090;2023-04-15T11:58:45;1.58;;;1.00;;
71202;SDS011;58929;47.490;19.090;2023-04-15T12:01:13;2.38;;;1.27;;
71202;SDS011;58929;47.490;19.090;2023-04-15T12:03:41;1.25;;;0.90;;
71202;SDS011;58929;47.490;19.090;2023-04-15T12:06:14;4.30;;;0.82;;
71202;SDS011;58929;47.490;19.090;2023-04-15T12:08:56;1.63;;;0.82;;
71202;SDS011;58929;47.490;19.090;2023-04-15T12:11:28;1.05;;;0.88;;
71202;SDS011;58929;47.490;19.090;2023-04-15T12:14:01;0.80;;;0.80;;
71202;SDS011;58929;47.490;19.090;2023-04-15T12:16:31;5.10;;;1.10;;
71202;SDS011;58929;47.490;19.090;2023-04-15T12:19:12;2.70;;;1.40;;
71202;SDS011;58929;47.490;19.090;2023-04-15T12:21:41;1.42;;;1.02;;
71202;SDS011;58929;47.490;19.090;2023-04-15T12:24:10;1.17;;;0.90;;
71202;SDS011;58929;47.490;19.090;2023-04-15T12:26:42;3.38;;;2.38;;
71202;SDS011;58929;47.490;19.090;2023-04-15T12:29:12;1.95;;;1.45;;
71202;SDS011;58929;47.490;19.090;2023-04-15T12:31:50;1.40;;;1.25;;
71202;SDS011;58929;47.490;19.090;2023-04-15T12:34:18;1.42;;;0.77;;
71202;SDS011;58929;47.490;19.090;2023-04-15T12:36:52;1.15;;;1.05;;
71202;SDS011;58929;47.490;19.090;2023-04-15T12:39:20;2.65;;;1.50;;
71202;SDS011;58929;47.490;19.090;2023-04-15T12:41:49;2.15;;;1.42;;
71202;SDS011;58929;47.490;19.090;2023-04-15T12:44:20;2.35;;;1.40;;
71202;SDS011;58929;47.490;19.090;2023-04-15T12:46:49;2.25;;;1.60;;
71202;SDS011;58929;47.490;19.090;2023-04-15T12:49:18;1.40;;;1.30;;
71202;SDS011;58929;47.490;19.090;2023-04-15T12:51:47;1.92;;;1.40;;
71202;SDS011;58929;47.490;19.090;2023-04-15T12:54:16;1.85;;;1.58;;
71202;SDS011;58929;47.490;19.090;2023-04-15T12:56:44;2.53;;;1.70;;
71202;SDS011;58929;47.490;19.090;2023-04-15T12:59:13;3.35;;;2.55;;
71202;SDS011;58929;47.490;19.090;2023-04-15T13:01:43;4.97;;;2.95;;
71202;SDS011;58929;47.490;19.090;2023-04-15T13:04:11;5.72;;;2.90;;
71202;SDS011;58929;47.490;19.090;2023-04-15T13:06:39;5.20;;;3.17;;
71202;SDS011;58929;47.490;19.090;2023-04-15T13:09:07;5.70;;;2.72;;
71202;SDS011;58929;47.490;19.090;2023-04-15T13:11:35;2.53;;;2.00;;
71202;SDS011;58929;47.490;19.090;2023-04-15T13:14:03;5.95;;;2.15;;
71202;SDS011;58929;47.490;19.090;2023-04-15T13:16:33;2.15;;;1.70;;
71202;SDS011;58929;47.490;19.090;2023-04-15T13:19:02;1.58;;;1.30;;
71202;SDS011;58929;47.490;19.090;2023-04-15T13:21:31;3.10;;;1.67;;
71202;SDS011;58929;47.490;19.090;2023-04-15T13:24:01;2.47;;;1.70;;
71202;SDS011;58929;47.490;19.090;2023-04-15T13:26:30;2.85;;;1.65;;
71202;SDS011;58929;47.490;19.090;2023-04-15T13:28:58;2.28;;;1.70;;
71202;SDS011;58929;47.490;19.090;2023-04-15T13:31:26;3.65;;;2.33;;
71202;SDS011;58929;47.490;19.090;2023-04-15T13:33:55;3.75;;;2.78;;
71202;SDS011;58929;47.490;19.090;2023-04-15T13:36:24;3.05;;;1.50;;
71202;SDS011;58929;47.490;19.090;2023-04-15T13:38:53;3.28;;;2.05;;
71202;SDS011;58929;47.490;19.090;2023-04-15T13:41:21;5.57;;;2.05;;
71202;SDS011;58929;47.490;19.090;2023-04-15T13:43:49;3.38;;;2.30;;
71202;SDS011;58929;47.490;19.090;2023-04-15T13:46:17;2.90;;;2.58;;
71202;SDS011;58929;47.490;19.090;2023-04-15T13:48:45;4.90;;;3.42;;
71202;SDS011;58929;47.490;19.090;2023-04-15T13:51:13;5.05;;;3.38;;
71202;SDS011;58929;47.490;19.090;2023-04-15T13:53:42;5.15;;;2.95;;
71202;SDS011;58929;47.490;19.090;2023-04-15T13:56:10;6.88;;;3.35;;
71202;SDS011;58929;47.490;19.090;2023-04-15T13:58:39;6.88;;;3.70;;
71202;SDS011;58929;47.490;19.090;2023-04-15T14:01:07;5.70;;;3.83;;
71202;SDS011;58929;47.490;19.090;2023-04-15T14:03:35;6.43;;;4.13;;
71202;SDS011;58929;47.490;19.090;2023-04-15T14:06:03;5.45;;;3.83;;
71202;SDS011;58929;47.490;19.090;2023-04-15T14:08:32;6.80;;;3.40;;
71202;SDS011;58929;47.490;19.090;2023-04-15T14:11:01;4.50;;;3.03;;
71202;SDS011;58929;47.490;19.090;2023-04-15T14:13:29;4.28;;;2.78;;
71202;SDS011;58929;47.490;19.090;2023-04-15T14:15:57;3.05;;;2.60;;
71202;SDS011;58929;47.490;19.090;2023-04-15T14:18:25;3.40;;;2.50;;
71202;SDS011;58929;47.490;19.090;2023-04-15T14:20:53;3.72;;;2.92;;
71202;SDS011;58929;47.490;19.090;2023-04-15T14:23:21;4.25;;;2.50;;
71202;SDS011;58929;47.490;19.090;2023-04-15T14:25:49;5.68;;;3.90;;
71202;SDS011;58929;47.490;19.090;2023-04-15T14:28:19;8.20;;;4.15;;
71202;SDS011;58929;47.490;19.090;2023-04-15T14:30:47;6.50;;;4.18;;
71202;SDS011;58929;47.490;19.090;2023-04-15T14:33:15;9.98;;;5.38;;
71202;SDS011;58929;47.490;19.090;2023-04-15T14:35:43;5.75;;;3.95;;
71202;SDS011;58929;47.490;19.090;2023-04-15T14:38:12;6.40;;;4.18;;
71202;SDS011;58929;47.490;19.090;2023-04-15T14:40:43;6.78;;;3.50;;
71202;SDS011;58929;47.490;19.090;2023-04-15T14:43:11;6.47;;;3.53;;
71202;SDS011;58929;47.490;19.090;2023-04-15T14:45:40;5.88;;;3.50;;
71202;SDS011;58929;47.490;19.090;2023-04-15T14:48:10;6.43;;;3.90;;